Time;durP1;ratioP1;P1;durP2;ratioP2;P2;SDS_P1;SDS_P2;PMS_P1;PMS_P2;Temp;Humidity;BMP_temperature;BMP_pressure;BME280_temperature;BME280_humidity;BME280_pressure;Samples;Min_cycle;Max_cycle;Signal;HPM_P1;HPM_P2
2022/03/15 00:07:00;;;;;;;4.37;1.60;;;;;;;;;;20840725;28;20268;-69
2022/03/15 00:17:05;;;;;;;2.53;1.33;;;;;;;;;;20827031;28;20601;-69
2022/03/15 00:27:07;;;;;;;2.27;1.03;;;;;;;;;;20826011;28;20191;-69
2022/03/15 00:37:09;;;;;;;3.23;1.77;;;;;;;;;;20825213;28;20593;-70
2022/03/15 00:47:14;;;;;;;3.63;2.00;;;;;;;;;;20839738;28;20269;-69
2022/03/15 00:57:18;;;;;;;2.77;1.47;;;8.90;99.90;;;;;;20822789;28;20222;-69
2022/03/15 01:07:20;;;;;;;2.80;1.37;;;;;;;;;;20821332;28;20645;-70
2022/03/15 01:17:22;;;;;;;2.43;1.20;;;;;;;;;;20838361;28;20218;-69
2022/03/15 01:27:23;;;;;;;2.67;1.50;;;8.40;99.90;;;;;;20821714;28;20673;-70
2022/03/15 01:37:25;;;;;;;1.37;0.87;;;;;;;;;;20821836;28;20219;-69
2022/03/15 01:47:27;;;;;;;3.67;0.87;;;;;;;;;;20821592;28;20777;-69
2022/03/15 01:57:28;;;;;;;1.47;0.80;;;;;;;;;;20818520;28;20244;-69
2022/03/15 02:07:30;;;;;;;2.53;0.90;;;;;;;;;;20834069;28;20215;-69
2022/03/15 02:17:32;;;;;;;2.43;1.10;;;;;;;;;;20851290;28;20760;-69
2022/03/15 02:27:34;;;;;;;1.73;0.97;;;;;;;;;;20835381;28;20558;-69
2022/03/15 02:37:35;;;;;;;3.43;1.00;;;;;;;;;;20832645;28;20681;-70
2022/03/15 02:59:32;;;;;;;1.20;0.70;;;;;;;;;;21010940;27;20574;-67
2022/03/15 03:09:34;;;;;;;2.03;1.00;;;;;;;;;;20959381;28;20299;-67
2022/03/15 03:19:38;;;;;;;3.20;1.23;;;;;;;;;;20959130;28;20206;-67
2022/03/15 03:29:42;;;;;;;1.50;0.97;;;8.20;99.90;;;;;;20942016;28;20267;-67
2022/03/15 03:39:45;;;;;;;1.33;0.70;;;;;;;;;;20941043;28;20235;-67
2022/03/15 03:49:47;;;;;;;1.40;0.90;;;;;;;;;;20940660;28;20221;-67
2022/03/15 03:59:49;;;;;;;1.10;0.80;;;;;;;;;;20955235;28;20259;-68
2022/03/15 04:09:51;;;;;;;1.00;0.73;;;9.70;99.90;;;;;;20873336;28;20267;-68
2022/03/15 04:19:53;;;;;;;1.13;0.60;;;8.20;99.90;;;;;;20899375;28;20286;-68
2022/03/15 04:29:55;;;;;;;1.87;1.03;;;;;;;;;;20882516;28;20206;-68
2022/03/15 04:39:58;;;;;;;2.23;1.00;;;;;;;;;;20897638;28;20218;-68
2022/03/15 04:49:59;;;;;;;1.40;0.77;;;;;;;;;;20880748;28;20255;-68
2022/03/15 05:00:08;;;;;;;1.27;0.63;;;8.10;99.90;;;;;;20879774;28;20551;-68
2022/03/15 05:20:30;;;;;;;1.40;0.90;;;7.60;99.90;;;;;;20911510;28;20225;-67
2022/03/15 05:30:32;;;;;;;1.70;0.80;;;;;;;;;;20878632;28;20279;-67
2022/03/15 05:40:34;;;;;;;1.50;0.80;;;;;;;;;;20860815;28;20248;-67
2022/03/15 05:50:36;;;;;;;3.93;2.13;;;;;;;;;;20892549;28;20226;-67
2022/03/15 06:00:38;;;;;;;9.70;1.20;;;;;;;;;;20875397;28;20762;-67
2022/03/15 06:10:42;;;;;;;1.20;0.90;;;;;;;;;;20856254;28;20742;-67
2022/03/15 06:20:44;;;;;;;3.20;0.90;;;;;;;;;;20888926;28;20210;-67
2022/03/15 06:30:46;;;;;;;1.50;1.00;;;;;;;;;;20873385;28;20213;-67
2022/03/15 06:40:49;;;;;;;1.57;0.90;;;;;;;;;;20874130;28;20213;-67
2022/03/15 06:50:52;;;;;;;1.83;1.10;;;;;;;;;;20873044;28;20217;-67
2022/03/15 07:00:55;;;;;;;1.83;1.10;;;;;;;;;;20875145;28;20273;-67
2022/03/15 07:10:57;;;;;;;1.57;0.90;;;;;;;;;;20871516;28;20664;-67
2022/03/15 07:20:59;;;;;;;2.87;1.40;;;;;;;;;;20852212;28;20645;-68
2022/03/15 07:31:00;;;;;;;2.20;1.13;;;;;;;;;;20871170;28;20586;-67
2022/03/15 07:41:02;;;;;;;2.57;1.10;;;;;;;;;;20868831;28;20279;-67
2022/03/15 07:51:05;;;;;;;3.20;0.80;;;;;;;;;;20901802;28;20287;-67
2022/03/15 08:01:07;;;;;;;3.10;1.03;;;;;;;;;;20885088;28;20318;-67
2022/03/15 08:11:09;;;;;;;3.53;1.93;;;;;;;;;;20867677;28;20210;-67
2022/03/15 08:21:11;;;;;;;3.23;2.07;;;;;;;;;;20883209;28;20299;-67
2022/03/15 08:31:12;;;;;;;2.77;1.50;;;;;;;;;;20877482;28;20214;-67
2022/03/15 08:41:14;;;;;;;2.27;1.30;;;8.30;99.90;;;;;;20879882;28;20213;-67
2022/03/15 08:51:16;;;;;;;1.53;1.03;;;;;;;;;;20885098;22;20222;-63
2022/03/15 09:01:18;;;;;;;2.43;1.20;;;;;;;;;;20779145;28;20226;-66
2022/03/15 09:11:20;;;;;;;1.27;0.83;;;;;;;;;;20778614;28;20206;-66
2022/03/15 09:21:21;;;;;;;3.60;1.07;;;;;;;;;;20794256;28;20704;-66
2022/03/15 09:31:23;;;;;;;3.57;1.13;;;;;;;;;;20791214;28;20216;-67
2022/03/15 09:41:26;;;;;;;1.90;0.87;;;8.50;99.90;;;;;;20784085;28;20214;-66
2022/03/15 09:51:32;;;;;;;1.23;0.93;;;8.50;99.90;;;;;;20804510;28;20693;-66
2022/03/15 10:01:34;;;;;;;1.30;0.63;;;;;;;;;;20791034;28;20223;-66
2022/03/15 10:11:37;;;;;;;3.07;1.30;;;;;;;;;;20791439;28;20578;-66
2022/03/15 10:21:53;;;;;;;2.27;1.20;;;8.40;99.90;;;;;;20790610;28;20237;-66
2022/03/15 10:31:55;;;;;;;1.80;0.90;;;;;;;;;;20806254;28;20690;-66
2022/03/15 10:41:56;;;;;;;3.00;1.20;;;;;;;;;;20789489;28;20214;-66
2022/03/15 10:51:58;;;;;;;1.47;0.97;;;8.50;99.90;;;;;;20789181;28;20272;-66
2022/03/15 11:02:01;;;;;;;1.73;1.03;;;8.40;99.90;;;;;;20787824;28;20206;-66
2022/03/15 11:12:05;;;;;;;3.07;1.83;;;;;;;;;;20789150;28;20272;-66
2022/03/15 11:22:08;;;;;;;1.97;1.10;;;8.50;99.90;;;;;;20820580;28;20584;-66
2022/03/15 11:32:14;;;;;;;1.93;1.20;;;4.60;99.90;;;;;;20800061;28;20270;-66
2022/03/15 11:42:17;;;;;;;2.80;1.40;;;8.50;99.90;;;;;;20819226;28;20218;-67
2022/03/15 11:52:47;;;;;;;3.80;1.20;;;8.40;99.90;;;;;;20800856;28;20320;-67
2022/03/15 12:02:50;;;;;;;2.13;0.93;;;;;;;;;;20816885;28;20227;-66
2022/03/15 12:13:03;;;;;;;3.20;1.30;;;8.40;99.90;;;;;;20782187;28;20221;-66
2022/03/15 12:23:05;;;;;;;1.73;1.20;;;;;;;;;;20782494;28;20268;-66
2022/03/15 12:33:07;;;;;;;3.87;3.07;;;;;;;;;;20798992;28;20231;-66
2022/03/15 12:43:21;;;;;;;2.30;1.10;;;;;;;;;;20798626;28;20295;-66
2022/03/15 12:53:33;;;;;;;3.00;1.60;;;;;;;;;;20814007;28;20237;-66
2022/03/15 13:03:38;;;;;;;1.90;1.47;;;;;;;;;;20803076;28;20305;-67
2022/03/15 13:13:46;;;;;;;2.23;1.40;;;;;;;;;;20829084;28;20235;-66
2022/03/15 13:23:48;;;;;;;3.20;1.73;;;;;;;;;;20790057;28;20222;-66
2022/03/15 13:33:56;;;;;;;2.77;1.40;;;8.80;99.90;;;;;;20768183;28;20214;-66
2022/03/15 13:43:59;;;;;;;3.27;1.50;;;;;;;;;;20771028;28;20296;-67
2022/03/15 13:54:14;;;;;;;2.90;1.43;;;8.50;99.90;;;;;;20736528;28;20227;-67
2022/03/15 14:04:17;;;;;;;2.27;1.40;;;;;;;;;;20781627;28;20218;-66
2022/03/15 14:14:23;;;;;;;2.20;1.23;;;;;;;;;;20792366;28;20276;-66
2022/03/15 14:24:27;;;;;;;3.50;1.73;;;;;;;;;;20805619;28;20234;-66
2022/03/15 14:34:30;;;;;;;1.97;1.07;;;8.20;99.90;;;;;;20790374;28;20211;-66
2022/03/15 14:44:35;;;;;;;2.37;1.53;;;8.30;99.90;;;;;;20788397;28;20226;-66
2022/03/15 14:54:38;;;;;;;4.93;1.87;;;;;;;;;;20804623;28;20261;-66
2022/03/15 15:04:40;;;;;;;2.40;1.70;;;;;;;;;;20818168;28;20222;-66
2022/03/15 15:14:43;;;;;;;3.20;1.90;;;;;;;;;;20787181;28;20210;-66
2022/03/15 15:24:47;;;;;;;2.47;1.70;;;;;;;;;;20777741;28;20222;-67
2022/03/15 15:34:51;;;;;;;3.10;2.03;;;;;;;;;;20744746;28;20218;-67
2022/03/15 15:44:53;;;;;;;4.07;1.77;;;;;;;;;;20757606;28;20214;-65
2022/03/15 15:54:55;;;;;;;3.60;1.70;;;;;;;;;;20756783;22;20227;-85
2022/03/15 16:04:56;;;;;;;2.87;1.87;;;;;;;;;;20789158;28;20203;-82
2022/03/15 16:14:59;;;;;;;2.70;1.90;;;;;;;;;;20771767;28;20897;-82
2022/03/15 16:25:05;;;;;;;4.53;1.83;;;;;;;;;;20754067;28;20309;-83
2022/03/15 16:35:07;;;;;;;2.33;1.43;;;;;;;;;;20719213;28;20211;-83
2022/03/15 16:45:09;;;;;;;5.60;1.90;;;;;;;;;;20748983;28;20282;-83
2022/03/15 16:55:12;;;;;;;6.33;2.03;;;;;;;;;;20730074;28;20235;-82
2022/03/15 17:15:35;;;;;;;2.53;1.60;;;;;;;;;;20801404;28;20219;-81
2022/03/15 17:25:36;;;;;;;3.10;1.70;;;;;;;;;;20730510;28;20278;-81
2022/03/15 17:35:39;;;;;;;3.53;2.00;;;;;;;;;;20738757;28;20845;-80
2022/03/15 17:45:42;;;;;;;4.87;2.20;;;;;;;;;;20741126;28;20222;-80
2022/03/15 17:55:44;;;;;;;4.33;2.10;;;;;;;;;;20742176;28;20234;-79
2022/03/15 18:05:46;;;;;;;4.53;2.37;;;;;;;;;;20731760;28;20227;-80
2022/03/15 18:15:53;;;;;;;3.60;2.10;;;7.80;99.90;;;;;;20675631;28;20227;-79
2022/03/15 18:25:56;;;;;;;4.03;2.40;;;7.80;99.90;;;;;;20685848;28;20292;-80
2022/03/15 18:35:57;;;;;;;3.60;2.40;;;8.10;99.90;;;;;;20743712;28;20220;-82
2022/03/15 18:46:02;;;;;;;3.63;2.50;;;;;;;;;;20685055;28;20305;-81
2022/03/15 18:56:05;;;;;;;3.50;2.07;;;;;;;;;;20734802;28;20293;-81
2022/03/15 19:06:07;;;;;;;3.27;2.10;;;;;;;;;;20699572;28;20641;-82
2022/03/15 19:16:14;;;;;;;3.27;2.57;;;;;;;;;;20717013;28;20207;-82
2022/03/15 19:26:19;;;;;;;3.97;2.10;;;;;;;;;;20739803;28;20286;-83
2022/03/15 19:36:23;;;;;;;3.37;2.40;;;;;;;;;;20766346;28;20602;-82
2022/03/15 19:46:25;;;;;;;5.80;2.10;;;;;;;;;;20731908;28;20231;-81
2022/03/15 19:56:28;;;;;;;3.50;2.17;;;;;;;;;;20735764;28;20738;-82
2022/03/15 20:06:32;;;;;;;3.67;2.60;;;;;;;;;;20736973;28;20223;-82
2022/03/15 20:16:34;;;;;;;4.90;2.63;;;;;;;;;;20740086;28;20211;-82
2022/03/15 20:26:36;;;;;;;5.30;2.77;;;;;;;;;;20756352;28;20254;-82
2022/03/15 20:36:45;;;;;;;4.53;2.83;;;;;;;;;;20797601;28;20301;-81
2022/03/15 20:46:53;;;;;;;5.47;3.30;;;8.00;99.90;;;;;;20749336;28;20228;-82
2022/03/15 20:56:55;;;;;;;6.00;3.67;;;;;;;;;;20717520;28;20997;-80
2022/03/15 21:06:57;;;;;;;5.17;3.30;;;;;;;;;;20737279;28;20285;-84
2022/03/15 21:17:07;;;;;;;5.67;3.63;;;6.90;99.90;;;;;;20725313;28;20211;-82
2022/03/15 21:27:09;;;;;;;6.63;3.93;;;;;;;;;;20691327;28;20215;-83
2022/03/15 21:37:11;;;;;;;4.33;3.03;;;;;;;;;;20725041;28;20290;-83
2022/03/15 21:47:13;;;;;;;5.63;3.17;;;;;;;;;;20702911;28;20222;-83
2022/03/15 21:57:16;;;;;;;7.97;4.43;;;;;;;;;;20730607;28;20246;-82
2022/03/15 22:07:19;;;;;;;5.47;3.77;;;;;;;;;;20751971;28;20239;-83
2022/03/15 22:17:45;;;;;;;5.03;3.60;;;;;;;;;;20704856;28;20234;-83
2022/03/15 22:27:46;;;;;;;5.43;3.73;;;;;;;;;;20734790;28;20242;-83
2022/03/15 23:19:09;;;;;;;6.47;4.33;;;;;;;;;;20759616;28;20207;-84
2022/03/15 23:29:13;;;;;;;7.77;4.07;;;;;;;;;;20741240;28;20219;-84
2022/03/15 23:39:15;;;;;;;5.23;3.77;;;;;;;;;;20760367;28;20199;-84
2022/03/15 23:49:17;;;;;;;5.63;3.50;;;;;;;;;;20762192;28;20235;-84
2022/03/15 23:59:19;;;;;;;6.60;4.27;;;;;;;;;;20725367;28;20281;-83
